Hlavní strana
METAR-TAF:

METAR-TAF

Letiště :

Pori, Finsko

zeměpisná šířka: 61-28N, zeměpisná délka: 021-48E, výška: 13 m

Aktuální stav počasí

Zpráva byla vytvořena před 15 minutami, v 04:20 UTC
Severní vítr 4 kt, proměnlivý mezi severozápadním a severoseverovýchodním
Teplota -6°C
Vlhkost vzduchu 86%
Tlak 994 hPa
Viditelnost 10 km a více

METAR: EFPO 160420Z AUTO 35004KT 320V020 9999 BKN016/// M06/M08 Q0994

Čas: 06:35 (04:35 UTC)

Předpověď počasí

Zpráva byla vytvořena před 17 hodinami a 5 minutami, v 11:30 UTC
Předpověď platná od 15 v 12 UTC do 15 v 15 UTC
Severoseverozápadní vítr 9 kt
Viditelnost 10 km a více
Polojasno ve výšce 1400 ft
Oblačno až skoro zataženo ve výšce 2000 ft
Dočasný
od 15 v 12 UTC do 15 v 15 UTC
Oblačno až skoro zataženo ve výšce 1400 ft

TAF: EFPO 151130Z 1512/1515 33009KT 9999 SCT014 BKN020 TEMPO 1512/1515 BKN014

Stav a předpovědi počasí z více než 4 000 letišť (zprávy METAR a TAF).

Červené a žluté tečky na mapě představují dostupné meteorologické stanice.

Když kurzor umístíte na tečku, zobrazí se název stanice.

Pak kliknutím zobrazíte stav a předpověď počasí.

Chcete-li změnit mapu, kliknutím na zelené tlačítko se znaménkem +mapu přiblížíte, kliknutím na zelené tlačítko se znaménkem – mapu oddálíte a kliknutím na zelené šipky přejdete na sousední mapy.


METAR-TAF: